Swift Ace — C6XB8 — position and weather

sailwx.info

Track history (hours):
 
Tides and Currents Weather Stations Pressure Air Temp Water Temp Dewpoint Dewpoint Depression Visibility Wind Speed Wind Dir Waves Ship Positions

Swift Ace

Last reported at 2016-Apr-29 15:31 UTC. Time now 2016-May-05 02:49 UTC.
Position N 34°55' E 139°38'.

Length 200 m; draft 8.6 m.

Type: Cargo ship. MMSI: 310968322.

Date/timePositionNaut miles runAvg speedWind from/ knotsBaromVisibWave heightAir tempDewpointWater temp
2016-Apr-29 15:31N 34°55' E 139°38'1717.2
2016-Apr-29 14:33N 35°11' E 139°45'1111.5
2016-Apr-29 13:33N 35°22' E 139°42'6 5.5
2016-Apr-29 12:32N 35°27' E 139°41'0 0.0
2016-Apr-29 11:32N 35°27' E 139°41'0 0.0
2016-Apr-29 10:32N 35°27' E 139°41'0 0.0
2016-Apr-29 09:32N 35°27' E 139°41'0 0.0
2016-Apr-29 08:32N 35°27' E 139°41'0 0.0
2016-Apr-29 07:32N 35°27' E 139°41'0 0.0
2016-Apr-29 06:32N 35°27' E 139°41'0 0.0
2016-Apr-29 05:32N 35°27' E 139°41'0 0.0
2016-Apr-29 04:32N 35°27' E 139°41'0 0.0
2016-Apr-29 03:32N 35°27' E 139°41'0 0.0
2016-Apr-29 02:32N 35°27' E 139°41'0 0.0
2016-Apr-29 01:32N 35°27' E 139°41'0 0.0
2016-Apr-29 00:32N 35°27' E 139°41'0 0.0
2016-Apr-28 23:32N 35°27' E 139°41'0 0.0
2016-Apr-28 22:32N 35°27' E 139°41'1 0.8
2016-Apr-28 21:33N 35°27' E 139°42'9 8.7
2016-Apr-28 20:33N 35°18' E 139°44'1010.5
2016-Apr-28 19:33N 35°08' E 139°46'6 6.3
2016-Apr-28 18:33N 35°02' E 139°43'10 9.5
2016-Apr-28 17:33N 34°53' E 139°41'1111.5
2016-Apr-28 16:33N 34°42' E 139°35'  
2016-Apr-26 10:29N 33°49' E 134°56'1818.7
2016-Apr-26 09:33N 34°07' E 134°57'1514.5
2016-Apr-26 08:33N 34°21' E 135°00'1818.2
2016-Apr-26 07:33N 34°34' E 135°15'8 6.6
2016-Apr-26 06:25N 34°42' E 135°17'0 0.0
2016-Apr-26 05:25N 34°42' E 135°17'0 0.0
2016-Apr-26 04:25N 34°42' E 135°17'0 0.0
2016-Apr-26 03:31N 34°42' E 135°17'0 0.0
2016-Apr-26 02:31N 34°42' E 135°17'0 0.0
2016-Apr-26 01:31N 34°42' E 135°17'0 0.0
2016-Apr-26 00:31N 34°42' E 135°17'0 0.0
2016-Apr-25 23:25N 34°42' E 135°17'0 0.0
2016-Apr-25 22:31N 34°42' E 135°17'0 0.0
2016-Apr-25 21:25N 34°42' E 135°17'0 0.0
2016-Apr-25 20:31N 34°42' E 135°17'0 0.0
2016-Apr-25 19:31N 34°42' E 135°17'0 0.0
2016-Apr-25 18:31N 34°42' E 135°17'0 0.0
2016-Apr-25 17:31N 34°42' E 135°17'0 0.0
2016-Apr-25 16:31N 34°42' E 135°17'0 0.0
2016-Apr-25 15:19N 34°42' E 135°17'0 0.0
2016-Apr-25 14:31N 34°42' E 135°17'0 0.0
2016-Apr-25 13:31N 34°42' E 135°17'0 0.0
2016-Apr-25 12:31N 34°42' E 135°17'0 0.0
2016-Apr-25 11:31N 34°42' E 135°17'0 0.0
2016-Apr-25 10:31N 34°42' E 135°17'0 0.0
2016-Apr-25 09:31N 34°42' E 135°17'0 0.0
2016-Apr-25 08:25N 34°42' E 135°17'0 0.0
2016-Apr-25 07:31N 34°42' E 135°17'0 0.0
2016-Apr-25 06:31N 34°42' E 135°17'0 0.0
2016-Apr-25 05:19N 34°42' E 135°17'0 0.0
2016-Apr-25 04:19N 34°42' E 135°17'0 0.2
2016-Apr-25 03:34N 34°42' E 135°17'7 6.7
2016-Apr-25 02:33N 34°35' E 135°16'1817.9
2016-Apr-25 01:33N 34°21' E 135°03'1313.3
2016-Apr-25 00:33N 34°08' E 134°60'1816.3
2016-Apr-24 23:29N 33°51' E 134°54'  
Track history (hours):
 
Tides and Currents Weather Stations Pressure Air Temp Water Temp Dewpoint Dewpoint Depression Visibility Wind Speed Wind Dir Waves Ship Positions

Swift Ace

Last reported at 2016-Apr-29 15:31 UTC. Time now 2016-May-05 02:49 UTC.
Position N 34°55' E 139°38'.

Length 200 m; draft 8.6 m.

Type: Cargo ship. MMSI: 310968322.

Date/timePositionNaut miles runAvg speedWind from/ knotsBaromVisibWave heightAir tempDewpointWater temp
2016-Apr-29 15:31N 34°55' E 139°38'1717.2
2016-Apr-29 14:33N 35°11' E 139°45'1111.5
2016-Apr-29 13:33N 35°22' E 139°42'6 5.5
2016-Apr-29 12:32N 35°27' E 139°41'0 0.0
2016-Apr-29 11:32N 35°27' E 139°41'0 0.0
2016-Apr-29 10:32N 35°27' E 139°41'0 0.0
2016-Apr-29 09:32N 35°27' E 139°41'0 0.0
2016-Apr-29 08:32N 35°27' E 139°41'0 0.0
2016-Apr-29 07:32N 35°27' E 139°41'0 0.0
2016-Apr-29 06:32N 35°27' E 139°41'0 0.0
2016-Apr-29 05:32N 35°27' E 139°41'0 0.0
2016-Apr-29 04:32N 35°27' E 139°41'0 0.0
2016-Apr-29 03:32N 35°27' E 139°41'0 0.0
2016-Apr-29 02:32N 35°27' E 139°41'0 0.0
2016-Apr-29 01:32N 35°27' E 139°41'0 0.0
2016-Apr-29 00:32N 35°27' E 139°41'0 0.0
2016-Apr-28 23:32N 35°27' E 139°41'0 0.0
2016-Apr-28 22:32N 35°27' E 139°41'1 0.8
2016-Apr-28 21:33N 35°27' E 139°42'9 8.7
2016-Apr-28 20:33N 35°18' E 139°44'1010.5
2016-Apr-28 19:33N 35°08' E 139°46'6 6.3
2016-Apr-28 18:33N 35°02' E 139°43'10 9.5
2016-Apr-28 17:33N 34°53' E 139°41'1111.5
2016-Apr-28 16:33N 34°42' E 139°35'  
2016-Apr-26 10:29N 33°49' E 134°56'1818.7
2016-Apr-26 09:33N 34°07' E 134°57'1514.5
2016-Apr-26 08:33N 34°21' E 135°00'1818.2
2016-Apr-26 07:33N 34°34' E 135°15'8 6.6
2016-Apr-26 06:25N 34°42' E 135°17'0 0.0
2016-Apr-26 05:25N 34°42' E 135°17'0 0.0
2016-Apr-26 04:25N 34°42' E 135°17'0 0.0
2016-Apr-26 03:31N 34°42' E 135°17'0 0.0
2016-Apr-26 02:31N 34°42' E 135°17'0 0.0
2016-Apr-26 01:31N 34°42' E 135°17'0 0.0
2016-Apr-26 00:31N 34°42' E 135°17'0 0.0
2016-Apr-25 23:25N 34°42' E 135°17'0 0.0
2016-Apr-25 22:31N 34°42' E 135°17'0 0.0
2016-Apr-25 21:25N 34°42' E 135°17'0 0.0
2016-Apr-25 20:31N 34°42' E 135°17'0 0.0
2016-Apr-25 19:31N 34°42' E 135°17'0 0.0
2016-Apr-25 18:31N 34°42' E 135°17'0 0.0
2016-Apr-25 17:31N 34°42' E 135°17'0 0.0
2016-Apr-25 16:31N 34°42' E 135°17'0 0.0
2016-Apr-25 15:19N 34°42' E 135°17'0 0.0
2016-Apr-25 14:31N 34°42' E 135°17'0 0.0
2016-Apr-25 13:31N 34°42' E 135°17'0 0.0
2016-Apr-25 12:31N 34°42' E 135°17'0 0.0
2016-Apr-25 11:31N 34°42' E 135°17'0 0.0
2016-Apr-25 10:31N 34°42' E 135°17'0 0.0
2016-Apr-25 09:31N 34°42' E 135°17'0 0.0
2016-Apr-25 08:25N 34°42' E 135°17'0 0.0
2016-Apr-25 07:31N 34°42' E 135°17'0 0.0
2016-Apr-25 06:31N 34°42' E 135°17'0 0.0
2016-Apr-25 05:19N 34°42' E 135°17'0 0.0
2016-Apr-25 04:19N 34°42' E 135°17'0 0.2
2016-Apr-25 03:34N 34°42' E 135°17'7 6.7
2016-Apr-25 02:33N 34°35' E 135°16'1817.9
2016-Apr-25 01:33N 34°21' E 135°03'1313.3
2016-Apr-25 00:33N 34°08' E 134°60'1816.3
2016-Apr-24 23:29N 33°51' E 134°54'  

Dump ship's entire track history